Time;durP1;ratioP1;P1;durP2;ratioP2;P2;SDS_P1;SDS_P2;PMS_P1;PMS_P2;Temp;Humidity;BMP_temperature;BMP_pressure;BME280_temperature;BME280_humidity;BME280_pressure;Samples;Min_cycle;Max_cycle;Signal;HPM_P1;HPM_P2
2022/09/15 00:01:46;;;;;;;8.35;5.93;;;;;;;;;;10356716;28;20051;-88
2022/09/15 00:07:08;;;;;;;6.63;5.50;;;;;;;;;;10355477;28;20038;-85
2022/09/15 00:12:12;;;;;;;9.52;6.32;;;;;;;;;;11016579;23;20125;-86
2022/09/15 00:18:09;;;;;;;5.72;4.93;;;;;;;;;;10383914;28;20035;-85
2022/09/15 00:24:04;;;;;;;6.38;4.47;;;;;;;;;;10391806;28;20037;-82
2022/09/15 00:29:04;;;;;;;6.70;5.32;;;;;;;;;;10408947;28;20074;-82
2022/09/15 00:34:05;;;;;;;9.48;5.90;;;;;;;;;;10380307;28;20042;-85
2022/09/15 00:39:06;;;;;;;7.55;5.75;;;;;;;;;;10400507;28;20452;-84
2022/09/15 00:44:15;;;;;;;7.90;6.03;;;;;;;;;;10392285;28;20077;-86
2022/09/15 00:49:16;;;;;;;7.95;5.72;;;;;;;;;;10381364;28;20038;-86
2022/09/15 00:54:18;;;;;;;6.90;5.60;;;;;;;;;;10403372;28;20068;-87
2022/09/15 00:59:24;;;;;;;6.47;5.45;;;;;;;;;;10387150;28;20033;-87
2022/09/15 01:04:25;;;;;;;5.70;5.00;;;;;;;;;;10410790;28;20049;-87
2022/09/15 01:09:29;;;;;;;8.23;5.50;;;;;;;;;;10407442;28;20038;-88
2022/09/15 01:14:30;;;;;;;6.57;5.72;;;;;;;;;;10395213;28;20069;-88
2022/09/15 01:19:50;;;;;;;8.05;5.63;;;;;;;;;;10422961;28;20045;-85
2022/09/15 01:25:08;;;;;;;10.30;6.82;;;;;;;;;;10387716;28;20549;-88
2022/09/15 01:30:21;;;;;;;10.05;6.63;;;;;;;;;;10398790;28;20014;-85
2022/09/15 01:40:49;;;;;;;9.43;6.47;;;;;;;;;;10764567;23;20038;-86
2022/09/15 01:45:52;;;;;;;9.70;6.53;;;;;;;;;;10484212;23;20054;-88
2022/09/15 01:51:20;;;;;;;8.35;6.70;;;;;;;;;;10594300;23;20073;-86
2022/09/15 01:56:22;;;;;;;9.32;6.18;;;;;;;;;;10398656;28;20301;-88
2022/09/15 02:01:28;;;;;;;9.07;6.40;;;;;;;;;;10394212;28;20112;-84
2022/09/15 02:06:39;;;;;;;9.77;5.90;;;;;;;;;;10364969;28;20045;-88
2022/09/15 02:11:48;;;;;;;7.60;5.38;;;;;;;;;;10362288;28;20037;-86
2022/09/15 02:16:51;;;;;;;8.65;5.90;;;;;;;;;;10387971;28;20037;-88
2022/09/15 02:22:06;;;;;;;7.40;5.53;;;;;;;;;;10823281;23;20060;-86
2022/09/15 02:27:14;;;;;;;6.38;5.68;;;;;;;;;;10416036;28;20042;-86
2022/09/15 02:32:16;;;;;;;12.13;7.05;;;;;;;;;;10417070;28;20046;-87
2022/09/15 02:37:18;;;;;;;11.40;7.65;;;;;;;;;;10423994;28;20041;-88
2022/09/15 02:42:26;;;;;;;13.05;6.30;;;;;;;;;;10403066;28;20110;-86
2022/09/15 02:47:30;;;;;;;9.20;6.78;;;;;;;;;;10599725;23;20029;-82
2022/09/15 02:52:31;;;;;;;7.80;6.45;;;;;;;;;;10377530;28;20029;-86
2022/09/15 02:57:32;;;;;;;8.85;6.40;;;;;;;;;;10367420;28;20041;-84
2022/09/15 03:02:34;;;;;;;6.95;6.25;;;;;;;;;;10409290;28;20041;-85
2022/09/15 03:07:36;;;;;;;10.87;7.27;;;;;;;;;;10391494;28;20086;-85
2022/09/15 03:12:37;;;;;;;10.05;6.85;;;;;;;;;;10368109;28;20324;-87
2022/09/15 03:17:41;;;;;;;10.25;7.63;;;;;;;;;;10349969;28;20058;-84
2022/09/15 03:22:41;;;;;;;9.57;7.57;;;;;;;;;;10375466;28;20053;-87
2022/09/15 03:27:41;;;;;;;13.00;8.10;;;;;;;;;;10362445;28;20045;-82
2022/09/15 03:32:42;;;;;;;11.53;7.70;;;;;;;;;;10351550;28;20465;-83
2022/09/15 03:37:42;;;;;;;11.97;7.67;;;;;;;;;;10353734;28;20044;-83
2022/09/15 03:42:42;;;;;;;12.67;8.43;;;;;;;;;;10356247;28;20069;-82
2022/09/15 03:47:43;;;;;;;12.55;8.45;;;;;;;;;;10383226;28;20110;-83
2022/09/15 03:52:43;;;;;;;10.67;8.17;;;;;;;;;;10409650;28;20365;-84
2022/09/15 03:57:49;;;;;;;10.82;8.15;;;;;;;;;;10384361;28;20309;-85
2022/09/15 04:02:50;;;;;;;24.83;9.05;;;;;;;;;;10363700;28;20157;-86
2022/09/15 04:07:50;;;;;;;10.85;7.40;;;;;;;;;;10374824;28;20034;-88
2022/09/15 04:12:52;;;;;;;8.10;6.17;;;;;;;;;;10345124;28;20034;-87
2022/09/15 04:17:53;;;;;;;7.85;6.43;;;;;;;;;;10348455;28;20054;-87
2022/09/15 04:22:54;;;;;;;6.43;5.82;;;;;;;;;;10343777;28;20031;-87
2022/09/15 04:27:55;;;;;;;7.07;5.60;;;;;;;;;;10363280;28;20081;-84
2022/09/15 04:33:01;;;;;;;6.18;5.57;;;;;;;;;;10423017;23;20340;-84
2022/09/15 04:38:02;;;;;;;5.82;5.30;;;;;;;;;;10379529;28;20564;-82
2022/09/15 04:43:03;;;;;;;5.80;5.20;;;;;;;;;;10352899;28;20119;-83
2022/09/15 04:48:03;;;;;;;5.10;4.60;;;;;;;;;;10368578;28;20397;-84
2022/09/15 04:53:04;;;;;;;5.97;5.32;;;;;;;;;;10377006;28;20058;-86
2022/09/15 04:58:05;;;;;;;5.70;5.03;;;;;;;;;;10367805;28;20060;-85
2022/09/15 05:03:06;;;;;;;6.15;5.63;;;;;;;;;;10362237;28;20769;-86
2022/09/15 05:08:08;;;;;;;6.63;5.93;;;;;;;;;;10356534;28;20105;-85
2022/09/15 05:13:09;;;;;;;;;;;;;;;;;;10386728;28;20038;-84
2022/09/15 05:18:10;;;;;;;9.88;7.40;;;;;;;;;;10378439;28;19925;-85
2022/09/15 05:23:10;;;;;;;7.40;6.57;;;;;;;;;;10361754;28;20609;-83
2022/09/15 05:28:10;;;;;;;8.00;6.30;;;;;;;;;;10367137;28;20308;-83
2022/09/15 05:33:11;;;;;;;8.00;6.43;;;;;;;;;;10354723;28;20122;-83
2022/09/15 05:38:11;;;;;;;7.67;6.50;;;;;;;;;;10365913;28;20445;-82
2022/09/15 05:43:12;;;;;;;6.53;5.87;;;;;;;;;;10377534;28;20296;-81
2022/09/15 05:48:12;;;;;;;7.90;6.78;;;;;;;;;;10400984;28;20269;-82
2022/09/15 05:53:13;;;;;;;11.23;9.60;;;;;;;;;;10404801;28;20034;-85
2022/09/15 05:58:13;;;;;;;7.88;7.07;;;;;;;;;;10379983;28;20038;-83
2022/09/15 06:03:15;;;;;;;6.60;5.97;;;;;;;;;;10363183;28;20117;-80
2022/09/15 06:08:15;;;;;;;9.23;7.00;;;;;;;;;;10369587;28;20049;-81
2022/09/15 06:13:16;;;;;;;8.15;7.03;;;;;;;;;;10360842;28;20038;-81
2022/09/15 06:18:16;;;;;;;8.68;7.35;;;;;;;;;;10358294;28;20045;-79
2022/09/15 06:23:16;;;;;;;9.30;7.70;;;;;;;;;;10349974;28;20109;-79
2022/09/15 06:28:17;;;;;;;8.13;6.90;;;;;;;;;;10345322;28;20309;-80
2022/09/15 06:33:17;;;;;;;7.88;6.82;;;;;;;;;;10350183;28;20807;-81
2022/09/15 06:38:18;;;;;;;8.70;6.70;;;;;;;;;;10350751;28;20046;-79
2022/09/15 06:43:18;;;;;;;7.10;6.30;;;;;;;;;;10354175;28;20074;-81
2022/09/15 06:48:18;;;;;;;3.30;3.00;;;;;;;;;;10361347;28;20288;-80
2022/09/15 06:53:19;;;;;;;3.10;2.63;;;;;;;;;;10371334;28;20305;-83
2022/09/15 06:58:19;;;;;;;1.70;1.20;;;;;;;;;;10358371;28;20313;-79
2022/09/15 07:03:20;;;;;;;3.17;1.50;;;;;;;;;;10349342;28;20303;-78
2022/09/15 07:08:20;;;;;;;1.70;1.20;;;;;;;;;;10335488;28;20050;-80
2022/09/15 07:13:21;;;;;;;2.38;1.73;;;;;;;;;;10344595;28;20038;-80
2022/09/15 07:18:22;;;;;;;2.55;1.38;;;;;;;;;;10358151;28;20048;-81
2022/09/15 07:23:24;;;;;;;2.08;1.27;;;;;;;;;;10349100;28;20042;-82
2022/09/15 07:28:24;;;;;;;19.35;11.88;;;;;;;;;;10363803;28;20069;-80
2022/09/15 07:33:25;;;;;;;2.63;1.70;;;;;;;;;;10376914;28;20061;-84
2022/09/15 07:38:25;;;;;;;2.65;1.23;;;;;;;;;;10397005;28;20042;-84
2022/09/15 07:43:25;;;;;;;1.67;1.00;;;;;;;;;;10396623;28;20117;-83
2022/09/15 07:48:26;;;;;;;1.48;1.00;;;;;;;;;;10388609;28;20023;-83
2022/09/15 07:53:28;;;;;;;2.75;1.30;;;;;;;;;;10403539;28;20038;-83
2022/09/15 07:58:28;;;;;;;1.60;0.90;;;;;;;;;;10373716;28;20039;-78
2022/09/15 08:03:29;;;;;;;2.23;1.30;;;;;;;;;;10346537;28;20064;-77
2022/09/15 08:08:29;;;;;;;1.45;1.20;;;;;;;;;;10348992;28;20386;-79
2022/09/15 08:13:29;;;;;;;2.03;1.23;;;;;;;;;;10327569;28;20042;-75
2022/09/15 08:18:30;;;;;;;1.53;1.23;;;;;;;;;;10345712;28;20326;-76
2022/09/15 08:23:31;;;;;;;1.30;1.20;;;;;;;;;;10346364;28;20470;-77
2022/09/15 08:28:31;;;;;;;1.08;1.00;;;;;;;;;;10333219;28;20069;-78
2022/09/15 08:33:32;;;;;;;1.23;1.10;;;;;;;;;;10348687;28;20041;-77
2022/09/15 08:38:33;;;;;;;1.80;0.95;;;;;;;;;;10344115;28;20026;-81
2022/09/15 08:43:56;;;;;;;1.35;1.20;;;;;;;;;;10350293;28;20057;-81
2022/09/15 08:49:17;;;;;;;1.55;0.82;;;;;;;;;;10340797;28;20046;-79
2022/09/15 08:54:23;;;;;;;1.63;1.02;;;;;;;;;;10350515;28;20048;-82
2022/09/15 08:59:28;;;;;;;0.82;0.80;;;;;;;;;;10329639;28;20089;-79
2022/09/15 09:04:39;;;;;;;2.38;1.10;;;;;;;;;;10355467;28;20129;-80
2022/09/15 09:09:58;;;;;;;1.67;1.23;;;;;;;;;;10366842;28;20397;-78
2022/09/15 09:14:59;;;;;;;1.30;1.20;;;;;;;;;;10357520;28;20504;-80
2022/09/15 09:19:59;;;;;;;1.00;0.87;;;;;;;;;;10354941;28;20053;-78
2022/09/15 09:25:01;;;;;;;1.67;0.97;;;;;;;;;;10354004;28;20497;-77
2022/09/15 09:30:22;;;;;;;1.58;1.00;;;;;;;;;;10353273;28;20297;-88
2022/09/15 09:35:31;;;;;;;1.27;1.00;;;;;;;;;;10358909;28;20046;-85
2022/09/15 09:40:32;;;;;;;2.70;1.45;;;;;;;;;;10355400;28;20038;-85
2022/09/15 09:45:33;;;;;;;2.30;1.30;;;;;;;;;;10353848;28;20046;-85
2022/09/15 09:50:35;;;;;;;1.30;1.10;;;;;;;;;;10355087;28;20039;-83
2022/09/15 09:55:36;;;;;;;1.52;1.10;;;;;;;;;;10355244;28;20037;-85
2022/09/15 10:00:38;;;;;;;2.10;1.90;;;;;;;;;;10362320;28;20248;-82
2022/09/15 10:05:38;;;;;;;2.20;2.00;;;;;;;;;;10389459;28;20025;-85
2022/09/15 10:10:48;;;;;;;4.50;2.53;;;;;;;;;;10359280;28;20165;-84
2022/09/15 10:15:53;;;;;;;5.13;2.60;;;;;;;;;;10350871;28;20030;-80
2022/09/15 10:20:56;;;;;;;4.72;3.35;;;;;;;;;;10356841;28;20052;-80
2022/09/15 10:26:16;;;;;;;5.30;3.80;;;;;;;;;;10393211;28;20041;-77
2022/09/15 10:31:27;;;;;;;4.65;3.80;;;;;;;;;;10363101;28;20034;-76
2022/09/15 10:36:29;;;;;;;4.50;3.90;;;;;;;;;;10357809;28;20128;-77
2022/09/15 10:41:30;;;;;;;4.40;4.00;;;;;;;;;;10347972;28;20041;-76
2022/09/15 10:46:48;;;;;;;6.78;4.95;;;;;;;;;;10347499;28;20046;-76
2022/09/15 10:52:07;;;;;;;6.07;4.50;;;;;;;;;;10347417;28;20034;-78
2022/09/15 10:57:16;;;;;;;4.32;3.92;;;;;;;;;;10348452;28;20121;-76
2022/09/15 11:02:35;;;;;;;4.00;3.60;;;;;;;;;;10351072;28;20067;-75
2022/09/15 11:07:43;;;;;;;4.43;4.03;;;;;;;;;;10354211;28;20053;-76
2022/09/15 11:12:55;;;;;;;5.43;4.00;;;;;;;;;;10357761;28;20502;-82
2022/09/15 11:18:04;;;;;;;4.43;4.00;;;;;;;;;;10344721;28;20050;-73
2022/09/15 11:23:17;;;;;;;4.72;3.70;;;;;;;;;;10344444;28;20440;-73
2022/09/15 11:28:17;;;;;;;;;;;;;;;;;;10352145;28;20398;-73
2022/09/15 11:33:23;;;;;;;4.10;3.70;;;;;;;;;;10337840;28;20024;-73
2022/09/15 11:38:29;;;;;;;4.22;3.33;;;;;;;;;;10342167;28;20042;-73
2022/09/15 11:43:35;;;;;;;4.72;3.95;;;;;;;;;;10339870;28;20057;-73
2022/09/15 11:48:43;;;;;;;5.72;3.58;;;;;;;;;;10337190;28;20045;-74
2022/09/15 11:53:52;;;;;;;5.75;3.55;;;;;;;;;;10348046;28;20037;-75
2022/09/15 11:58:53;;;;;;;5.03;3.88;;;;;;;;;;10343095;28;20504;-75
2022/09/15 12:04:03;;;;;;;5.90;4.53;;;;;;;;;;10337003;28;20184;-75
2022/09/15 12:09:05;;;;;;;4.45;3.50;;;;;;;;;;10354511;28;20498;-74
2022/09/15 12:14:07;;;;;;;6.22;4.35;;;;;;;;;;10361770;28;20053;-84
2022/09/15 12:19:10;;;;;;;7.47;4.80;;;;;;;;;;10398288;28;20049;-81
2022/09/15 12:24:17;;;;;;;6.63;4.60;;;;;;;;;;10392992;28;20424;-80
2022/09/15 12:29:28;;;;;;;8.85;5.10;;;;;;;;;;10392779;28;20034;-83
2022/09/15 12:34:35;;;;;;;5.85;4.45;;;;;;;;;;10338303;28;20049;-82
2022/09/15 12:39:42;;;;;;;6.53;4.20;;;;;;;;;;10353272;28;20054;-83
2022/09/15 12:44:49;;;;;;;4.40;2.90;;;;;;;;;;10363369;28;20148;-80
2022/09/15 12:49:50;;;;;;;5.00;3.35;;;;;;;;;;10357566;28;20064;-81
2022/09/15 12:54:56;;;;;;;4.88;3.78;;;;;;;;;;10351520;28;20470;-80
2022/09/15 13:00:15;;;;;;;5.65;3.80;;;;;;;;;;10350427;28;20091;-80
2022/09/15 13:05:52;;;;;;;5.93;3.53;;;;;;;;;;10350211;28;20465;-80
2022/09/15 13:11:00;;;;;;;14.55;3.45;;;;;;;;;;10240078;28;20034;-81
2022/09/15 13:16:01;;;;;;;3.97;3.28;;;;;;;;;;10346138;28;20502;-82
2022/09/15 13:21:04;;;;;;;3.85;2.90;;;;;;;;;;10371721;28;20065;-81
2022/09/15 13:26:07;;;;;;;3.15;2.40;;;;;;;;;;10373955;28;20072;-81
2022/09/15 13:31:28;;;;;;;4.68;2.50;;;;;;;;;;10359529;28;20049;-79
2022/09/15 13:36:29;;;;;;;4.40;2.70;;;;;;;;;;10341202;28;20066;-80
2022/09/15 13:41:48;;;;;;;3.47;2.38;;;;;;;;;;10358497;28;20086;-80
2022/09/15 13:47:11;;;;;;;3.72;2.67;;;;;;;;;;10347128;28;20517;-79
2022/09/15 13:52:17;;;;;;;2.92;2.40;;;;;;;;;;10368608;28;20188;-78
2022/09/15 13:57:18;;;;;;;4.07;2.47;;;;;;;;;;10357140;28;20062;-78
2022/09/15 14:02:18;;;;;;;3.47;2.33;;;;;;;;;;10381023;28;20030;-79
2022/09/15 14:07:22;;;;;;;2.97;2.45;;;;;;;;;;10385838;28;20297;-78
2022/09/15 14:12:22;;;;;;;5.07;2.80;;;;;;;;;;10395257;28;20164;-79
2022/09/15 14:17:25;;;;;;;8.60;2.70;;;;;;;;;;10394343;28;20034;-79
2022/09/15 14:22:27;;;;;;;4.85;2.42;;;;;;;;;;10379993;28;20332;-79
2022/09/15 14:27:29;;;;;;;5.77;2.53;;;;;;;;;;10369465;28;20045;-78
2022/09/15 14:32:33;;;;;;;4.03;3.05;;;;;;;;;;10396437;28;20073;-80
2022/09/15 14:37:33;;;;;;;5.03;3.40;;;;;;;;;;10384052;28;20130;-81
2022/09/15 14:42:34;;;;;;;4.35;2.47;;;;;;;;;;10370035;28;20046;-81
2022/09/15 14:47:35;;;;;;;3.65;2.90;;;;;;;;;;10382946;28;20077;-81
2022/09/15 14:52:41;;;;;;;4.32;2.90;;;;;;;;;;10402501;28;20042;-81
2022/09/15 14:57:44;;;;;;;2.78;2.55;;;;;;;;;;10387972;28;20039;-85
2022/09/15 15:02:59;;;;;;;4.32;2.92;;;;;;;;;;10375539;28;20054;-80
2022/09/15 15:08:02;;;;;;;3.78;2.85;;;;;;;;;;10364102;28;20091;-81
2022/09/15 15:13:06;;;;;;;4.10;2.65;;;;;;;;;;10369159;28;20093;-80
2022/09/15 15:18:26;;;;;;;5.85;4.95;;;;;;;;;;10366323;28;20097;-80
2022/09/15 15:23:27;;;;;;;3.40;2.60;;;;;;;;;;10366773;28;20046;-79
2022/09/15 15:28:29;;;;;;;4.28;2.42;;;;;;;;;;10390168;28;20018;-81
2022/09/15 15:33:30;;;;;;;3.30;2.80;;;;;;;;;;10378356;28;20034;-81
2022/09/15 15:38:34;;;;;;;4.07;2.70;;;;;;;;;;10395111;28;20095;-82
2022/09/15 15:43:35;;;;;;;3.72;2.97;;;;;;;;;;10372769;28;20038;-80
2022/09/15 15:48:36;;;;;;;2.70;2.28;;;;;;;;;;10362365;28;20069;-81
2022/09/15 15:53:41;;;;;;;4.30;2.83;;;;;;;;;;10349840;28;20110;-79
2022/09/15 15:58:41;;;;;;;3.70;2.38;;;;;;;;;;10360286;28;20038;-79
2022/09/15 16:03:42;;;;;;;3.70;2.70;;;;;;;;;;10360581;28;20148;-81
2022/09/15 16:08:43;;;;;;;3.53;2.40;;;;;;;;;;10356419;28;20050;-82
2022/09/15 16:13:43;;;;;;;3.58;2.53;;;;;;;;;;10360958;28;20022;-82
2022/09/15 16:18:44;;;;;;;4.63;2.70;;;;;;;;;;10359730;28;20058;-82
2022/09/15 16:23:45;;;;;;;3.42;2.35;;;;;;;;;;10361468;28;20125;-81
2022/09/15 16:28:45;;;;;;;4.53;4.10;;;;;;;;;;10359816;28;20042;-80
2022/09/15 16:33:46;;;;;;;3.72;3.33;;;;;;;;;;10345952;28;20500;-81
2022/09/15 16:38:47;;;;;;;3.45;2.80;;;;;;;;;;10333163;28;20064;-80
2022/09/15 16:43:48;;;;;;;3.83;3.30;;;;;;;;;;10356323;28;20050;-79
2022/09/15 16:48:49;;;;;;;4.35;3.33;;;;;;;;;;10362744;28;20034;-79
2022/09/15 16:53:50;;;;;;;3.33;3.03;;;;;;;;;;10344264;28;20337;-77
2022/09/15 16:58:52;;;;;;;3.35;3.05;;;;;;;;;;10374178;28;20042;-79
2022/09/15 17:03:52;;;;;;;4.43;2.97;;;;;;;;;;10369649;28;20034;-77
2022/09/15 17:08:54;;;;;;;4.57;3.50;;;;;;;;;;10371189;28;20057;-78
2022/09/15 17:13:54;;;;;;;4.65;3.20;;;;;;;;;;10409475;28;20292;-78
2022/09/15 17:18:55;;;;;;;4.73;3.90;;;;;;;;;;10389482;28;20069;-81
2022/09/15 17:23:57;;;;;;;4.95;3.60;;;;;;;;;;10358362;28;20058;-84
2022/09/15 17:28:57;;;;;;;5.68;3.30;;;;;;;;;;10352970;28;20038;-83
2022/09/15 17:33:59;;;;;;;4.10;3.35;;;;;;;;;;10361315;28;20045;-82
2022/09/15 17:39:01;;;;;;;8.63;3.60;;;;;;;;;;10351541;28;20042;-82
2022/09/15 17:44:02;;;;;;;4.32;3.50;;;;;;;;;;10356402;28;20159;-81
2022/09/15 17:49:02;;;;;;;5.55;4.00;;;;;;;;;;10355195;28;20141;-82
2022/09/15 17:54:03;;;;;;;4.60;3.40;;;;;;;;;;10371693;28;20121;-80
2022/09/15 17:59:03;;;;;;;4.88;4.03;;;;;;;;;;10361182;28;20743;-77
2022/09/15 18:04:08;;;;;;;5.78;3.85;;;;;;;;;;10364562;28;20161;-77
2022/09/15 18:09:10;;;;;;;4.97;3.42;;;;;;;;;;10373198;28;20040;-79
2022/09/15 18:14:11;;;;;;;3.85;3.55;;;;;;;;;;10385070;28;20038;-81
2022/09/15 18:19:11;;;;;;;6.00;4.28;;;;;;;;;;10366362;28;20038;-79
2022/09/15 18:24:13;;;;;;;5.10;3.87;;;;;;;;;;10363463;28;20041;-80
2022/09/15 18:29:13;;;;;;;6.10;4.30;;;;;;;;;;10355593;28;20105;-78
2022/09/15 18:34:13;;;;;;;5.38;4.57;;;;;;;;;;10378644;28;20042;-81
2022/09/15 18:39:17;;;;;;;7.00;4.27;;;;;;;;;;10402862;28;20034;-82
2022/09/15 18:44:18;;;;;;;4.75;4.25;;;;;;;;;;10401586;28;20060;-79
2022/09/15 18:49:18;;;;;;;5.80;4.18;;;;;;;;;;10373077;28;20038;-80
2022/09/15 18:54:18;;;;;;;6.57;4.75;;;;;;;;;;10360300;28;20105;-79
2022/09/15 18:59:19;;;;;;;6.07;4.80;;;;;;;;;;10392267;28;20081;-80
2022/09/15 19:04:19;;;;;;;5.32;4.65;;;;;;;;;;10393224;28;20773;-82
2022/09/15 19:09:21;;;;;;;5.65;4.97;;;;;;;;;;10383011;28;20031;-80
2022/09/15 19:14:23;;;;;;;6.00;4.72;;;;;;;;;;10392715;28;20064;-81
2022/09/15 19:19:25;;;;;;;7.00;5.57;;;;;;;;;;10359918;28;20049;-81
2022/09/15 19:24:32;;;;;;;6.43;4.97;;;;;;;;;;10366480;28;20042;-81
2022/09/15 19:29:34;;;;;;;6.85;4.75;;;;;;;;;;10370280;28;20501;-81
2022/09/15 19:34:40;;;;;;;7.22;4.28;;;;;;;;;;10362903;28;20172;-79
2022/09/15 19:39:41;;;;;;;6.15;4.90;;;;;;;;;;10368346;28;20409;-80
2022/09/15 19:44:41;;;;;;;6.27;5.07;;;;;;;;;;10359001;28;20129;-80
2022/09/15 19:49:41;;;;;;;6.63;4.50;;;;;;;;;;10375835;28;20334;-82
2022/09/15 19:54:44;;;;;;;6.23;4.87;;;;;;;;;;10380730;28;20042;-85
2022/09/15 19:59:45;;;;;;;8.75;6.35;;;;;;;;;;10395776;28;20054;-86
2022/09/15 20:04:48;;;;;;;7.60;6.15;;;;;;;;;;10363882;28;20476;-87
2022/09/15 20:09:51;;;;;;;7.82;6.38;;;;;;;;;;10357980;28;20106;-83
2022/09/15 20:14:53;;;;;;;9.43;6.85;;;;;;;;;;10386154;28;20046;-86
2022/09/15 20:19:54;;;;;;;7.75;6.07;;;;;;;;;;10375481;28;20026;-86
2022/09/15 20:24:56;;;;;;;7.70;6.18;;;;;;;;;;10370274;28;20405;-84
2022/09/15 20:29:58;;;;;;;8.75;6.50;;;;;;;;;;10363619;28;20033;-81
2022/09/15 20:34:58;;;;;;;8.77;6.32;;;;;;;;;;10375994;28;20081;-81
2022/09/15 20:39:58;;;;;;;7.60;6.10;;;;;;;;;;10365399;28;20057;-83
2022/09/15 20:45:01;;;;;;;11.20;7.47;;;;;;;;;;10377972;28;20289;-83
2022/09/15 20:50:02;;;;;;;9.73;7.18;;;;;;;;;;10363503;28;20042;-85
2022/09/15 20:55:04;;;;;;;8.85;6.72;;;;;;;;;;10363488;28;20046;-85
2022/09/15 21:00:06;;;;;;;8.13;6.90;;;;;;;;;;10367546;28;20034;-84
2022/09/15 21:05:09;;;;;;;9.30;6.63;;;;;;;;;;10374889;28;20569;-85
2022/09/15 21:10:11;;;;;;;7.00;6.25;;;;;;;;;;10378903;28;20052;-85
2022/09/15 21:15:13;;;;;;;9.88;6.78;;;;;;;;;;10377650;28;20057;-84
2022/09/15 21:20:14;;;;;;;9.65;7.82;;;;;;;;;;10392468;28;20055;-84
2022/09/15 21:25:15;;;;;;;9.20;6.97;;;;;;;;;;10374047;28;20038;-83
2022/09/15 21:30:15;;;;;;;11.00;7.20;;;;;;;;;;10395508;28;20444;-82
2022/09/15 21:35:16;;;;;;;9.77;6.72;;;;;;;;;;10396339;23;20053;-81
2022/09/15 21:40:17;;;;;;;11.23;7.60;;;;;;;;;;10431574;28;20037;-83
2022/09/15 21:45:18;;;;;;;12.07;7.25;;;;;;;;;;10597678;23;20331;-82
2022/09/15 21:50:18;;;;;;;10.85;7.20;;;;;;;;;;10395225;28;20215;-81
2022/09/15 21:55:18;;;;;;;12.77;7.77;;;;;;;;;;10395022;28;20006;-81
2022/09/15 22:00:19;;;;;;;10.43;7.53;;;;;;;;;;10473866;23;20054;-84
2022/09/15 22:05:20;;;;;;;10.55;7.22;;;;;;;;;;10417087;28;20052;-82
2022/09/15 22:10:20;;;;;;;10.20;7.32;;;;;;;;;;10422929;28;20045;-82
2022/09/15 22:15:21;;;;;;;9.20;6.93;;;;;;;;;;10424304;28;20025;-84
2022/09/15 22:20:21;;;;;;;9.73;7.15;;;;;;;;;;10411925;28;20843;-86
2022/09/15 22:25:22;;;;;;;9.57;6.67;;;;;;;;;;10412035;28;20125;-84
2022/09/15 22:30:22;;;;;;;11.45;7.63;;;;;;;;;;10387269;28;20045;-84
2022/09/15 22:35:23;;;;;;;11.15;7.10;;;;;;;;;;10392267;28;20050;-85
2022/09/15 22:40:24;;;;;;;10.32;7.47;;;;;;;;;;10394026;28;20526;-84
2022/09/15 22:45:24;;;;;;;10.60;7.17;;;;;;;;;;10402888;28;20084;-83
2022/09/15 22:50:25;;;;;;;9.85;7.18;;;;;;;;;;10402283;28;20129;-86
2022/09/15 22:55:26;;;;;;;9.07;7.13;;;;;;;;;;10408328;28;20021;-85
2022/09/15 23:00:28;;;;;;;10.02;6.80;;;;;;;;;;10405651;28;20030;-87
2022/09/15 23:05:30;;;;;;;10.07;7.07;;;;;;;;;;10413626;28;20021;-83
2022/09/15 23:10:31;;;;;;;10.90;6.85;;;;;;;;;;10401978;28;20037;-82
2022/09/15 23:15:32;;;;;;;9.90;7.25;;;;;;;;;;10391077;28;20041;-80
2022/09/15 23:20:33;;;;;;;7.95;6.15;;;;;;;;;;10381919;28;20034;-80
2022/09/15 23:25:34;;;;;;;9.45;6.93;;;;;;;;;;10412649;28;20026;-81
2022/09/15 23:30:34;;;;;;;8.35;6.57;;;;;;;;;;10424844;28;20087;-80
2022/09/15 23:35:35;;;;;;;11.57;6.30;;;;;;;;;;10425671;28;20033;-82
2022/09/15 23:40:37;;;;;;;8.13;5.82;;;;;;;;;;10408229;28;20356;-82
2022/09/15 23:45:39;;;;;;;10.30;6.53;;;;;;;;;;10399406;28;20071;-82
2022/09/15 23:50:40;;;;;;;6.17;5.13;;;;;;;;;;10415469;28;20034;-83
